createdAt,value
2022-10-14T00:02:05.642Z,100315.91
2022-10-14T00:04:54.308Z,100326.03
2022-10-14T00:07:44.457Z,100324.97
2022-10-14T00:10:32.856Z,100324.97
2022-10-14T00:13:21.316Z,100285.41
2022-10-14T00:16:16.878Z,100321.88
2022-10-14T00:19:06.559Z,100336.59
2022-10-14T00:21:54.998Z,100333.66
2022-10-14T00:24:44.795Z,100333.66
2022-10-14T00:27:33.187Z,100339.28
2022-10-14T00:30:21.837Z,100324.00
2022-10-14T00:33:10.240Z,100334.78
2022-10-14T00:36:00.156Z,100343.63
2022-10-14T00:38:49.074Z,100345.28
2022-10-14T00:41:39.200Z,100343.56
2022-10-14T00:44:59.076Z,100344.84
2022-10-14T00:47:48.357Z,100339.88
2022-10-14T00:50:37.133Z,100347.81
2022-10-14T00:53:25.599Z,100348.84
2022-10-14T00:56:17.172Z,100349.47
2022-10-14T00:59:07.599Z,100341.41
2022-10-14T01:01:56.043Z,100349.66
2022-10-14T01:04:46.472Z,100351.50
2022-10-14T01:07:56.577Z,100337.84
2022-10-14T01:10:49.512Z,100340.72
2022-10-14T01:13:41.544Z,100342.34
2022-10-14T01:16:38.692Z,100336.97
2022-10-14T01:19:45.477Z,100334.44
2022-10-14T01:22:36.653Z,100339.63
2022-10-14T01:25:29.878Z,100330.72
2022-10-14T01:28:24.713Z,100332.78
2022-10-14T01:31:19.451Z,100332.75
2022-10-14T01:34:11.054Z,100333.59
2022-10-14T01:37:02.410Z,100327.75
2022-10-14T01:39:55.232Z,100320.91
2022-10-14T01:42:44.294Z,100315.75
2022-10-14T01:45:35.620Z,100319.94
2022-10-14T01:48:28.084Z,100319.31
2022-10-14T01:51:19.883Z,100312.94
2022-10-14T01:54:13.983Z,100310.00
2022-10-14T01:57:05.262Z,100307.50
2022-10-14T01:59:54.263Z,100302.97
2022-10-14T02:02:43.047Z,100283.69
2022-10-14T02:05:36.417Z,100295.50
2022-10-14T02:08:30.956Z,100303.56
2022-10-14T02:11:20.003Z,100299.03
2022-10-14T02:14:16.279Z,100289.50
2022-10-14T02:17:09.416Z,100279.59
2022-10-14T02:20:01.826Z,100279.16
2022-10-14T02:22:55.617Z,100271.53
2022-10-14T02:25:46.424Z,100273.78
2022-10-14T02:28:35.043Z,100262.81
2022-10-14T02:31:24.342Z,100261.63
2022-10-14T02:34:14.792Z,100258.31
2022-10-14T02:37:04.113Z,100253.97
2022-10-14T02:39:58.469Z,100253.97
2022-10-14T02:42:46.992Z,100240.16
2022-10-14T02:45:35.802Z,100254.84
2022-10-14T02:48:24.209Z,100251.34
2022-10-14T02:51:12.720Z,100230.31
2022-10-14T02:54:02.360Z,100237.50
2022-10-14T02:56:52.116Z,100239.84
2022-10-14T02:59:40.592Z,100244.16
2022-10-14T03:02:29.063Z,100246.25
2022-10-14T03:05:17.626Z,100227.25
2022-10-14T03:08:06.238Z,100228.28
2022-10-14T03:10:54.689Z,100226.63
2022-10-14T03:13:44.484Z,100228.31
2022-10-14T03:16:32.863Z,100215.94
2022-10-14T03:19:21.275Z,100213.44
2022-10-14T03:22:09.705Z,100210.09
2022-10-14T03:24:58.163Z,100204.09
2022-10-14T03:27:46.567Z,100171.66
2022-10-14T03:30:36.339Z,100197.28
2022-10-14T03:33:26.416Z,100201.84
2022-10-14T03:36:15.517Z,100196.22
2022-10-14T03:39:04.199Z,100192.25
2022-10-14T03:41:52.591Z,100197.66
2022-10-14T03:44:41.264Z,100192.69
2022-10-14T03:47:31.086Z,100197.22
2022-10-14T03:50:19.880Z,100194.97
2022-10-14T03:53:08.343Z,100189.56
2022-10-14T03:55:56.772Z,100183.97
2022-10-14T03:58:45.243Z,100178.97
2022-10-14T04:01:33.706Z,100161.44
2022-10-14T04:04:23.498Z,100160.16
2022-10-14T04:07:11.994Z,100164.53
2022-10-14T04:10:00.456Z,100145.78
2022-10-14T04:12:48.887Z,100167.00
2022-10-14T04:15:37.530Z,100167.00
2022-10-14T04:18:25.958Z,100146.78
2022-10-14T04:21:16.475Z,100152.09
2022-10-14T04:24:08.420Z,100155.78
2022-10-14T04:26:57.154Z,100154.75
2022-10-14T04:29:45.618Z,100151.88
2022-10-14T04:32:34.030Z,100154.66
2022-10-14T04:35:22.483Z,100156.72
2022-10-14T04:38:12.327Z,100165.84
2022-10-14T04:41:00.883Z,100149.50
2022-10-14T04:43:49.346Z,100147.44
2022-10-14T04:46:37.789Z,100147.22
2022-10-14T04:49:26.209Z,100145.41
2022-10-14T04:52:14.667Z,100141.69
2022-10-14T04:55:04.752Z,100137.41
2022-10-14T04:57:53.287Z,100118.44
2022-10-14T05:00:41.736Z,100128.38
2022-10-14T05:03:30.157Z,100119.72
2022-10-14T05:06:18.665Z,100097.09
2022-10-14T05:09:07.542Z,100118.69
2022-10-14T05:11:57.328Z,100109.63
2022-10-14T05:14:46.540Z,100120.41
2022-10-14T05:17:36.323Z,100112.38
2022-10-14T05:20:24.795Z,100104.91
2022-10-14T05:23:13.212Z,100093.81
2022-10-14T05:26:01.635Z,100100.19
2022-10-14T05:28:52.534Z,100097.28
2022-10-14T05:31:41.172Z,100093.16
2022-10-14T05:34:29.601Z,100090.03
2022-10-14T05:37:18.054Z,100086.88
2022-10-14T05:40:07.714Z,100085.00
2022-10-14T05:42:56.153Z,100086.22
2022-10-14T05:45:45.944Z,100085.00
2022-10-14T05:48:34.420Z,100087.81
2022-10-14T05:51:23.199Z,100087.38
2022-10-14T05:54:12.252Z,100075.47
2022-10-14T05:57:00.687Z,100084.69
2022-10-14T05:59:49.149Z,100078.94
2022-10-14T06:02:38.944Z,100079.16
2022-10-14T06:05:27.389Z,100074.63
2022-10-14T06:08:16.465Z,100096.72
2022-10-14T06:11:05.483Z,100093.38
2022-10-14T06:13:54.116Z,100092.72
2022-10-14T06:16:42.559Z,100100.34
2022-10-14T06:19:33.437Z,100088.22
2022-10-14T06:22:22.288Z,100096.81
2022-10-14T06:25:10.926Z,100086.06
2022-10-14T06:28:03.185Z,100090.22
2022-10-14T06:30:51.623Z,100092.28
2022-10-14T06:33:40.162Z,100090.66
2022-10-14T06:36:29.939Z,100090.13
2022-10-14T06:39:18.763Z,100092.41
2022-10-14T06:42:10.791Z,100094.66
2022-10-14T06:45:09.899Z,100087.97
2022-10-14T06:47:58.422Z,100086.47
2022-10-14T06:50:46.860Z,100086.25
2022-10-14T06:53:36.757Z,100086.44
2022-10-14T06:56:25.207Z,100086.44
2022-10-14T06:59:13.737Z,100083.66
2022-10-14T07:02:02.272Z,100091.03
2022-10-14T07:04:50.744Z,100081.53
2022-10-14T07:07:39.258Z,100055.94
2022-10-14T07:10:29.110Z,100082.59
2022-10-14T07:13:17.556Z,100079.00
2022-10-14T07:16:06.620Z,100082.75
2022-10-14T07:18:55.187Z,100091.78
2022-10-14T07:21:45.270Z,100082.59
2022-10-14T07:24:33.787Z,100080.63
2022-10-14T07:27:23.901Z,100043.44
2022-10-14T07:30:15.303Z,100080.59
2022-10-14T07:33:06.023Z,100079.66
2022-10-14T07:35:54.545Z,100076.97
2022-10-14T07:38:43.536Z,100082.69
2022-10-14T07:41:32.328Z,100067.69
2022-10-14T07:44:24.933Z,100080.59
2022-10-14T07:47:15.823Z,100085.31
2022-10-14T07:50:05.017Z,100084.25
2022-10-14T07:52:56.610Z,100095.81
2022-10-14T07:55:52.074Z,100089.81
2022-10-14T07:58:44.382Z,100081.72
2022-10-14T08:01:34.940Z,100100.16
2022-10-14T08:04:25.764Z,100100.88
2022-10-14T08:07:15.455Z,100095.25
2022-10-14T08:10:04.772Z,100088.56
2022-10-14T08:12:53.287Z,100093.63
2022-10-14T08:15:43.246Z,100082.00
2022-10-14T08:18:33.049Z,100084.66
2022-10-14T08:21:21.985Z,100034.81
2022-10-14T08:24:11.099Z,100090.06
2022-10-14T08:27:00.993Z,100095.34
2022-10-14T08:29:49.432Z,100080.22
2022-10-14T08:32:38.228Z,100080.44
2022-10-14T08:35:28.056Z,100080.13
2022-10-14T08:38:16.534Z,100075.41
2022-10-14T08:41:11.294Z,100084.44
2022-10-14T08:44:10.241Z,100088.09
2022-10-14T08:47:00.271Z,100088.47
2022-10-14T08:49:55.572Z,100080.50
2022-10-14T08:52:49.282Z,100069.28
2022-10-14T08:55:40.007Z,100069.03
2022-10-14T08:58:32.706Z,100072.34
2022-10-14T09:01:24.409Z,100066.69
2022-10-14T09:04:15.275Z,100077.13
2022-10-14T09:07:04.402Z,100078.31
2022-10-14T09:09:56.168Z,100080.78
2022-10-14T09:12:44.709Z,100074.97
2022-10-14T09:15:36.144Z,100086.38
2022-10-14T09:18:30.015Z,100086.38
2022-10-14T09:21:47.821Z,100083.22
2022-10-14T09:24:37.943Z,100066.34
2022-10-14T09:27:29.570Z,100064.41
2022-10-14T09:30:18.625Z,100065.25
2022-10-14T09:33:07.784Z,100047.03
2022-10-14T09:38:48.417Z,100053.06
2022-10-14T09:41:37.008Z,100046.97
2022-10-14T09:44:26.940Z,100038.59
2022-10-14T09:47:18.857Z,100042.38
2022-10-14T09:50:10.075Z,100038.69
2022-10-14T09:53:02.464Z,100040.56
2022-10-14T09:55:53.598Z,100038.03
2022-10-14T09:58:44.589Z,100035.53
2022-10-14T10:01:40.369Z,100019.56
2022-10-14T10:04:36.175Z,100032.59
2022-10-14T10:07:32.516Z,100031.38
2022-10-14T10:10:22.626Z,100029.25
2022-10-14T10:13:35.877Z,100029.97
2022-10-14T10:16:26.987Z,100031.31
2022-10-14T10:19:32.964Z,100025.16
2022-10-14T10:22:26.380Z,100018.31
2022-10-14T10:25:27.903Z,100017.50
2022-10-14T10:28:22.916Z,100021.66
2022-10-14T10:31:21.130Z,100024.06
2022-10-14T10:34:29.027Z,100010.19
2022-10-14T10:37:27.289Z,100017.41
2022-10-14T10:40:32.425Z,100012.41
2022-10-14T10:43:59.802Z,100011.16
2022-10-14T10:47:00.880Z,100007.44
2022-10-14T10:49:58.706Z,99992.41
2022-10-14T10:53:01.291Z,99992.16
2022-10-14T10:55:56.419Z,99989.03
2022-10-14T10:58:56.520Z,99952.00
2022-10-14T11:01:51.526Z,99978.41
2022-10-14T11:04:47.050Z,99986.28
2022-10-14T11:08:05.677Z,99980.28
2022-10-14T11:11:30.401Z,99969.34
2022-10-14T11:14:32.686Z,99957.38
2022-10-14T11:17:25.970Z,99941.78
2022-10-14T11:20:24.258Z,99946.06
2022-10-14T11:23:39.362Z,99929.44
2022-10-14T11:26:39.502Z,99933.31
2022-10-14T11:29:39.632Z,99933.06
2022-10-14T11:32:31.656Z,99929.94
2022-10-14T11:35:27.045Z,99914.47
2022-10-14T11:38:27.787Z,99928.13
2022-10-14T11:41:26.277Z,99925.19
2022-10-14T11:44:21.177Z,99914.97
2022-10-14T11:47:12.583Z,99913.09
2022-10-14T11:50:03.276Z,99908.13
2022-10-14T11:52:58.322Z,99909.38
2022-10-14T11:55:50.460Z,99897.94
2022-10-14T11:58:39.937Z,99891.41
2022-10-14T12:01:35.714Z,99898.97
2022-10-14T12:04:29.871Z,99902.63
2022-10-14T12:07:22.693Z,99903.59
2022-10-14T12:10:20.606Z,99901.56
2022-10-14T12:13:12.143Z,99897.88
2022-10-14T12:16:02.077Z,99906.75
2022-10-14T12:18:55.535Z,99840.50
2022-10-14T12:21:49.878Z,99892.31
2022-10-14T12:24:42.649Z,99897.03
2022-10-14T12:27:31.900Z,99886.16
2022-10-14T12:30:33.869Z,99860.97
2022-10-14T12:33:23.195Z,99882.88
2022-10-14T12:36:31.871Z,99883.91
2022-10-14T12:39:31.883Z,99883.13
2022-10-14T12:42:21.736Z,99829.41
2022-10-14T12:45:16.447Z,99884.88
2022-10-14T12:48:08.777Z,99892.66
2022-10-14T12:51:06.818Z,99886.97
2022-10-14T12:54:07.186Z,99880.75
2022-10-14T12:56:57.574Z,99880.50
2022-10-14T12:59:49.968Z,99888.72
2022-10-14T13:02:39.735Z,99879.53
2022-10-14T13:05:32.944Z,99883.09
2022-10-14T13:08:28.674Z,99872.56
2022-10-14T13:11:28.957Z,99879.91
2022-10-14T13:14:23.172Z,99878.34
2022-10-14T13:17:30.068Z,99876.16
2022-10-14T13:20:52.644Z,99878.88
2022-10-14T13:23:43.376Z,99874.97
2022-10-14T13:26:39.737Z,99867.34
2022-10-14T13:29:33.340Z,99847.88
2022-10-14T13:32:31.194Z,99871.38
2022-10-14T13:35:25.951Z,99851.31
2022-10-14T13:38:16.532Z,99862.28
2022-10-14T13:41:06.201Z,99876.22
2022-10-14T13:43:57.273Z,99878.59
2022-10-14T13:46:46.847Z,99873.78
2022-10-14T13:49:38.227Z,99883.53
2022-10-14T13:52:27.419Z,99868.50
2022-10-14T13:55:18.468Z,99856.25
2022-10-14T13:58:13.788Z,99854.19
2022-10-14T14:01:06.705Z,99821.72
2022-10-14T14:03:57.698Z,99850.88
2022-10-14T14:07:03.412Z,99854.47
2022-10-14T14:09:59.628Z,99850.94
2022-10-14T14:12:48.574Z,99812.94
2022-10-14T14:15:37.958Z,99819.69
2022-10-14T14:18:49.484Z,99818.84
2022-10-14T14:21:45.375Z,99835.28
2022-10-14T14:24:35.208Z,99833.06
2022-10-14T14:27:26.695Z,99829.03
2022-10-14T14:30:22.652Z,99827.69
2022-10-14T14:33:13.097Z,99829.56
2022-10-14T14:36:05.290Z,99825.25
2022-10-14T14:38:56.140Z,99821.16
2022-10-14T14:41:51.061Z,99819.03
2022-10-14T14:44:43.052Z,99823.91
2022-10-14T14:47:31.970Z,99834.00
2022-10-14T14:50:30.607Z,99820.44
2022-10-14T14:53:23.817Z,99823.16
2022-10-14T14:56:15.189Z,99829.22
2022-10-14T14:59:07.745Z,99826.53
2022-10-14T15:01:57.448Z,99821.97
2022-10-14T15:04:47.979Z,99785.94
2022-10-14T15:07:37.104Z,99823.34
2022-10-14T15:10:28.603Z,99807.69
2022-10-14T15:13:33.823Z,99803.00
2022-10-14T15:16:41.393Z,99779.13
2022-10-14T15:19:35.664Z,99792.19
2022-10-14T15:22:33.344Z,99782.69
2022-10-14T15:25:28.988Z,99784.06
2022-10-14T15:28:30.554Z,99780.00
2022-10-14T15:31:19.140Z,99772.97
2022-10-14T15:34:16.277Z,99762.31
2022-10-14T15:37:04.753Z,99776.44
2022-10-14T15:40:03.313Z,99742.63
2022-10-14T15:42:53.375Z,99766.84
2022-10-14T15:45:43.113Z,99766.28
2022-10-14T15:48:32.156Z,99751.31
2022-10-14T15:51:23.316Z,99772.53
2022-10-14T15:54:12.389Z,99771.16
2022-10-14T15:57:01.097Z,99773.16
2022-10-14T15:59:51.986Z,99761.94
2022-10-14T16:02:43.539Z,99781.28
2022-10-14T16:05:32.139Z,99772.47
2022-10-14T16:08:20.576Z,99769.69
2022-10-14T16:11:23.801Z,99757.75
2022-10-14T16:14:13.627Z,99763.97
2022-10-14T16:17:03.878Z,99750.00
2022-10-14T16:19:52.492Z,99751.25
2022-10-14T16:22:40.889Z,99750.91
2022-10-14T16:25:33.607Z,99730.16
2022-10-14T16:28:22.302Z,99727.31
2022-10-14T16:31:11.658Z,99690.13
2022-10-14T16:34:01.837Z,99735.13
2022-10-14T16:36:51.436Z,99740.75
2022-10-14T16:39:40.716Z,99750.66
2022-10-14T16:42:29.732Z,99745.00
2022-10-14T16:45:18.886Z,99740.59
2022-10-14T16:48:07.439Z,99731.16
2022-10-14T16:50:57.422Z,99718.63
2022-10-14T16:53:48.941Z,99728.06
2022-10-14T16:56:56.802Z,99712.28
2022-10-14T16:59:45.409Z,99701.78
2022-10-14T17:02:33.937Z,99719.53
2022-10-14T17:05:22.441Z,99728.13
2022-10-14T17:08:12.264Z,99723.44
2022-10-14T17:11:00.747Z,99730.50
2022-10-14T17:13:52.633Z,99723.13
2022-10-14T17:16:41.379Z,99723.56
2022-10-14T17:19:29.997Z,99713.50
2022-10-14T17:22:20.895Z,99719.41
2022-10-14T17:25:11.213Z,99716.13
2022-10-14T17:27:59.754Z,99712.28
2022-10-14T17:30:48.315Z,99712.78
2022-10-14T17:33:37.035Z,99692.56
2022-10-14T17:36:28.093Z,99715.47
2022-10-14T17:39:24.366Z,99715.16
2022-10-14T17:42:19.328Z,99713.78
2022-10-14T17:45:09.681Z,99683.09
2022-10-14T17:47:58.677Z,99703.78
2022-10-14T17:50:48.739Z,99721.75
2022-10-14T17:53:37.497Z,99698.25
2022-10-14T17:56:27.479Z,99723.88
2022-10-14T17:59:17.403Z,99723.63
2022-10-14T18:02:09.840Z,99711.09
2022-10-14T18:04:58.347Z,99713.00
2022-10-14T18:07:46.965Z,99582.69
2022-10-14T18:10:36.654Z,99709.69
2022-10-14T18:13:25.325Z,99706.41
2022-10-14T18:16:15.721Z,99706.41
2022-10-14T18:19:06.767Z,99698.78
2022-10-14T18:21:55.241Z,99696.34
2022-10-14T18:24:43.983Z,99694.97
2022-10-14T18:27:32.387Z,99689.75
2022-10-14T18:30:20.850Z,99691.13
2022-10-14T18:33:10.715Z,99684.56
2022-10-14T18:35:59.291Z,99686.44
2022-10-14T18:38:51.016Z,99681.28
2022-10-14T18:41:39.643Z,99691.03
2022-10-14T18:44:28.094Z,99684.00
2022-10-14T18:47:16.652Z,99683.41
2022-10-14T18:50:07.023Z,99686.59
2022-10-14T18:52:56.313Z,99684.66
2022-10-14T18:55:44.818Z,99670.56
2022-10-14T18:58:33.248Z,99676.22
2022-10-14T19:01:22.748Z,99675.88
2022-10-14T19:04:13.735Z,99641.63
2022-10-14T19:07:04.159Z,99665.81
2022-10-14T19:09:54.196Z,99673.69
2022-10-14T19:12:45.554Z,99652.72
2022-10-14T19:15:44.639Z,99656.81
2022-10-14T19:18:34.556Z,99650.63
2022-10-14T19:21:26.459Z,99618.94
2022-10-14T19:24:16.608Z,99614.13
2022-10-14T19:27:05.051Z,99645.44
2022-10-14T19:29:53.500Z,99626.81
2022-10-14T19:32:41.911Z,99628.38
2022-10-14T19:35:30.344Z,99629.75
2022-10-14T19:38:18.889Z,99632.16
2022-10-14T19:41:09.347Z,99624.28
2022-10-14T19:43:59.202Z,99614.47
2022-10-14T19:46:48.274Z,99612.41
2022-10-14T19:49:36.843Z,99606.84
2022-10-14T19:52:25.397Z,99598.16
2022-10-14T19:55:13.828Z,99595.94
2022-10-14T19:58:04.591Z,99590.25
2022-10-14T20:00:53.148Z,99594.31
2022-10-14T20:03:42.087Z,99595.31
2022-10-14T20:06:33.224Z,99586.53
2022-10-14T20:09:21.736Z,99579.19
2022-10-14T20:12:10.372Z,99587.94
2022-10-14T20:15:00.161Z,99580.91
2022-10-14T20:17:48.678Z,99574.19
2022-10-14T20:20:40.043Z,99556.50
2022-10-14T20:23:28.617Z,99556.84
2022-10-14T20:26:19.626Z,99566.66
2022-10-14T20:29:08.163Z,99571.47
2022-10-14T20:31:58.152Z,99555.22
2022-10-14T20:34:46.840Z,99569.38
2022-10-14T20:37:35.287Z,99568.53
2022-10-14T20:40:23.739Z,99565.03
2022-10-14T20:43:12.321Z,99555.53
2022-10-14T20:46:00.784Z,99538.78
2022-10-14T20:48:54.326Z,99548.84
2022-10-14T20:51:42.777Z,99546.63
2022-10-14T20:54:31.234Z,99548.75
2022-10-14T20:57:19.840Z,99536.06
2022-10-14T21:00:09.864Z,99540.66
2022-10-14T21:02:58.456Z,99539.25
2022-10-14T21:05:48.255Z,99532.47
2022-10-14T21:08:36.816Z,99528.38
2022-10-14T21:11:25.948Z,99490.56
2022-10-14T21:14:14.415Z,99520.53
2022-10-14T21:17:02.886Z,99512.66
2022-10-14T21:19:51.311Z,99515.13
2022-10-14T21:22:41.110Z,99510.56
2022-10-14T21:25:29.580Z,99500.53
2022-10-14T21:28:18.113Z,99508.09
2022-10-14T21:31:07.524Z,99499.25
2022-10-14T21:34:01.194Z,99499.50
2022-10-14T21:36:52.809Z,99487.56
2022-10-14T21:39:42.615Z,99489.19
2022-10-14T21:42:31.039Z,99471.53
2022-10-14T21:45:19.465Z,99487.06
2022-10-14T21:48:07.893Z,99480.41
2022-10-14T21:51:02.972Z,99475.03
2022-10-14T21:53:51.486Z,99472.31
2022-10-14T21:56:41.310Z,99462.25
2022-10-14T21:59:29.736Z,99473.16
2022-10-14T22:02:18.489Z,99468.81
2022-10-14T22:05:07.171Z,99451.47
2022-10-14T22:07:55.615Z,99462.94
2022-10-14T22:10:44.999Z,99453.44
2022-10-14T22:13:35.196Z,99465.06
2022-10-14T22:16:24.088Z,99451.31
2022-10-14T22:19:12.840Z,99454.50
2022-10-14T22:22:01.316Z,99422.13
2022-10-14T22:24:49.991Z,99430.19
2022-10-14T22:27:38.420Z,99446.66
2022-10-14T22:30:28.570Z,99439.78
2022-10-14T22:33:17.040Z,99433.16
2022-10-14T22:36:09.974Z,99425.31
2022-10-14T22:38:59.773Z,99432.31
2022-10-14T22:41:48.244Z,99411.41
2022-10-14T22:44:36.712Z,99423.69
2022-10-14T22:47:26.656Z,99412.69
2022-10-14T22:50:15.155Z,99405.31
2022-10-14T22:53:03.608Z,99405.56
2022-10-14T22:55:52.590Z,99410.97
2022-10-14T22:58:40.988Z,99403.44
2022-10-14T23:01:30.106Z,99408.75
2022-10-14T23:04:20.235Z,99415.56
2022-10-14T23:07:08.746Z,99405.91
2022-10-14T23:09:57.146Z,99396.72
2022-10-14T23:12:45.566Z,99400.75
2022-10-14T23:15:34.643Z,99400.09
2022-10-14T23:18:23.212Z,99400.00
2022-10-14T23:21:15.189Z,99257.06
2022-10-14T23:24:05.381Z,99392.75
2022-10-14T23:26:53.823Z,99386.25
2022-10-14T23:29:42.221Z,99368.69
2022-10-14T23:32:30.616Z,99378.88
2022-10-14T23:35:19.050Z,99378.91
2022-10-14T23:38:11.916Z,99372.50
2022-10-14T23:41:02.677Z,99375.34
2022-10-14T23:43:52.263Z,99375.72
2022-10-14T23:46:40.683Z,99369.91
2022-10-14T23:49:29.055Z,99368.31
2022-10-14T23:52:17.536Z,99373.03
2022-10-14T23:55:08.180Z,99375.25
2022-10-14T23:57:56.615Z,99368.56
